Time;durP1;ratioP1;P1;durP2;ratioP2;P2;SDS_P1;SDS_P2;PMS_P1;PMS_P2;Temp;Humidity;BMP_temperature;BMP_pressure;BME280_temperature;BME280_humidity;BME280_pressure;Samples;Min_cycle;Max_cycle;Signal;HPM_P1;HPM_P2
2023/06/24 00:02:23;;;;;;;11.25;7.10;;;;;;;-145.89;100.00;61635.81;6009523;23;20034;-71
2023/06/24 00:04:51;;;;;;;7.53;6.93;;;;;;;-145.89;100.00;61635.81;6032568;23;20026;-71
2023/06/24 00:07:19;;;;;;;8.18;7.22;;;;;;;-145.89;100.00;61635.81;6004335;23;20031;-72
2023/06/24 00:09:46;;;;;;;17.10;7.15;;;;;;;-145.89;100.00;61635.81;6023334;23;20118;-70
2023/06/24 00:12:18;;;;;;;7.15;6.65;;;;;;;-145.89;100.00;61635.81;6008888;23;20035;-70
2023/06/24 00:14:46;;;;;;;6.80;6.30;;;;;;;-145.89;100.00;61635.81;6045821;23;20033;-70
2023/06/24 00:17:13;;;;;;;7.75;7.00;;;;;;;-145.89;100.00;61635.81;6016453;23;20509;-71
2023/06/24 00:19:39;;;;;;;7.20;6.60;;;;;;;-145.89;100.00;61635.81;6049347;23;20010;-71
2023/06/24 00:22:06;;;;;;;8.73;6.88;;;;;;;-145.89;100.00;61635.81;6012296;23;20029;-71
2023/06/24 00:24:32;;;;;;;7.10;6.60;;;;;;;-145.89;100.00;61635.81;6047542;23;20026;-70
2023/06/24 00:26:59;;;;;;;7.55;6.82;;;;;;;-145.89;100.00;61635.81;6015124;23;20015;-71
2023/06/24 00:29:25;;;;;;;8.02;7.22;;;;;;;-145.89;100.00;61635.81;6047585;23;20050;-70
2023/06/24 00:31:51;;;;;;;7.40;6.70;;;;;;;-145.89;100.00;61635.81;6019943;23;20041;-70
2023/06/24 00:34:19;;;;;;;8.05;7.20;;;;;;;-145.89;100.00;61635.81;6048692;23;20145;-70
2023/06/24 00:36:46;;;;;;;7.18;6.68;;;;;;;-145.89;100.00;61635.81;6013177;23;20094;-70
2023/06/24 00:39:13;;;;;;;7.30;6.80;;;;;;;-145.89;100.00;61635.81;6044994;23;20053;-70
2023/06/24 00:41:39;;;;;;;7.00;6.45;;;;;;;-145.89;100.00;61635.81;6012909;23;20023;-70
2023/06/24 00:44:07;;;;;;;6.63;6.13;;;;;;;-145.89;100.00;61635.81;6046291;23;20018;-72
2023/06/24 00:46:34;;;;;;;11.30;6.65;;;;;;;-145.89;100.00;61635.81;6017624;23;20031;-70
2023/06/24 00:49:02;;;;;;;7.00;6.50;;;;;;;-145.89;100.00;61635.81;6046309;23;20023;-72
2023/06/24 00:51:33;;;;;;;7.70;7.10;;;;;;;-145.89;100.00;61635.81;5988998;23;20414;-72
2023/06/24 00:54:00;;;;;;;7.95;7.15;;;;;;;-145.89;100.00;61635.81;6042459;23;20018;-71
2023/06/24 00:56:34;;;;;;;7.22;6.53;;;;;;;-145.89;100.00;61635.81;6010703;23;20035;-72
2023/06/24 00:59:02;;;;;;;7.55;6.90;;;;;;;-145.89;100.00;61635.81;6043824;23;20045;-73
2023/06/24 01:01:35;;;;;;;7.97;7.20;;;;;;;-145.89;100.00;61635.81;6007492;23;20039;-71
2023/06/24 01:04:03;;;;;;;7.38;6.78;;;;;;;-145.89;100.00;61635.81;6051106;23;20115;-70
2023/06/24 01:06:30;;;;;;;7.20;6.60;;;;;;;-145.89;100.00;61635.81;6009173;23;20074;-70
2023/06/24 01:08:59;;;;;;;7.55;6.85;;;;;;;-145.89;100.00;61635.81;6041915;23;20102;-71
2023/06/24 01:11:27;;;;;;;15.13;7.05;;;;;;;-145.89;100.00;61635.81;6008605;23;20690;-70
2023/06/24 01:13:53;;;;;;;8.45;7.10;;;;;;;-145.89;100.00;61635.81;6043022;23;20522;-70
2023/06/24 01:16:32;;;;;;;7.20;6.60;;;;;;;-145.89;100.00;61635.81;6015357;23;20031;-71
2023/06/24 01:19:11;;;;;;;6.85;6.45;;;;;;;-145.89;100.00;61635.81;6048073;23;20026;-70
2023/06/24 01:22:03;;;;;;;6.85;6.35;;;;;;;-145.89;100.00;61635.81;6015524;23;20023;-70
2023/06/24 01:24:50;;;;;;;7.87;7.17;;;;;;;-145.89;100.00;61635.81;6051941;23;20050;-70
2023/06/24 01:27:44;;;;;;;8.20;7.40;;;;;;;-145.89;100.00;61635.81;6003951;23;20019;-70
2023/06/24 01:30:23;;;;;;;7.70;7.13;;;;;;;-145.89;100.00;61635.81;6041022;23;20022;-70
2023/06/24 01:33:01;;;;;;;7.43;6.82;;;;;;;-145.89;100.00;61635.81;6011239;23;20557;-71
2023/06/24 01:35:35;;;;;;;7.22;6.68;;;;;;;-145.89;100.00;61635.81;6040395;23;20499;-71
2023/06/24 01:38:10;;;;;;;7.20;6.60;;;;;;;-145.89;100.00;61635.81;6018150;23;20022;-71
2023/06/24 01:40:44;;;;;;;6.75;6.28;;;;;;;-145.89;100.00;61635.81;6036185;23;20011;-70
2023/06/24 01:43:13;;;;;;;7.78;7.18;;;;;;;-145.89;100.00;61635.81;6010620;23;21927;-70
2023/06/24 01:45:47;;;;;;;10.93;7.03;;;;;;;-145.89;100.00;61635.81;6051764;23;20467;-71
2023/06/24 01:48:18;;;;;;;7.10;6.60;;;;;;;-145.89;100.00;61635.81;6011073;23;20038;-71
2023/06/24 01:51:07;;;;;;;7.75;7.15;;;;;;;-145.89;100.00;61635.81;6045475;23;20027;-71
2023/06/24 01:53:42;;;;;;;6.88;6.38;;;;;;;-145.89;100.00;61635.81;6014902;23;20088;-71
2023/06/24 01:56:12;;;;;;;7.20;6.70;;;;;;;-145.89;100.00;61635.81;6042231;23;20051;-71
2023/06/24 01:58:42;;;;;;;8.05;6.85;;;;;;;-145.89;100.00;61635.81;6012978;23;20020;-70
2023/06/24 02:01:09;;;;;;;7.55;6.95;;;;;;;-145.89;100.00;61635.81;6053255;23;20030;-70
2023/06/24 02:03:36;;;;;;;7.45;6.85;;;;;;;-145.89;100.00;61635.81;6011144;23;20023;-70
2023/06/24 02:06:05;;;;;;;8.00;7.32;;;;;;;-145.89;100.00;61635.81;6051078;23;20088;-71
2023/06/24 02:08:34;;;;;;;6.82;6.35;;;;;;;-145.89;100.00;61635.81;6008102;23;20026;-71
2023/06/24 02:11:02;;;;;;;7.20;6.60;;;;;;;-145.89;100.00;61635.81;6052749;23;20045;-71
2023/06/24 02:13:35;;;;;;;7.63;7.03;;;;;;;-145.89;100.00;61635.81;6011102;23;20005;-70
2023/06/24 02:16:05;;;;;;;10.77;6.95;;;;;;;-145.89;100.00;61635.81;6047822;23;20046;-72
2023/06/24 02:18:34;;;;;;;7.55;6.80;;;;;;;-145.89;100.00;61635.81;6014820;23;20023;-70
2023/06/24 02:21:03;;;;;;;8.10;6.95;;;;;;;-145.89;100.00;61635.81;6050011;23;20127;-70
2023/06/24 02:23:30;;;;;;;8.43;7.63;;;;;;;-145.89;100.00;61635.81;6014457;23;20086;-70
2023/06/24 02:25:58;;;;;;;8.07;7.38;;;;;;;-145.89;100.00;61635.81;6049647;23;20058;-71
2023/06/24 02:28:25;;;;;;;8.25;7.47;;;;;;;-145.89;100.00;61635.81;6018328;23;20653;-71
2023/06/24 02:30:51;;;;;;;8.90;7.97;;;;;;;-145.89;100.00;61635.81;6053955;23;20097;-70
2023/06/24 02:33:18;;;;;;;7.90;7.10;;;;;;;-145.89;100.00;61635.81;6022082;23;20018;-70
2023/06/24 02:35:45;;;;;;;8.68;7.78;;;;;;;-145.89;100.00;61635.81;6050805;23;20044;-70
2023/06/24 02:38:12;;;;;;;9.90;7.25;;;;;;;-145.89;100.00;61635.81;6006023;23;20015;-71
2023/06/24 02:40:39;;;;;;;7.93;7.32;;;;;;;-145.89;100.00;61635.81;6044939;23;20019;-70
2023/06/24 02:43:05;;;;;;;7.45;6.93;;;;;;;-145.89;100.00;61635.81;6008680;23;20030;-70
2023/06/24 02:45:32;;;;;;;8.30;7.50;;;;;;;-145.89;100.00;61635.81;6046079;23;20037;-70
2023/06/24 02:48:00;;;;;;;9.13;8.27;;;;;;;-145.89;100.00;61635.81;6019330;23;20029;-71
2023/06/24 02:50:27;;;;;;;9.48;8.05;;;;;;;-145.89;100.00;61635.81;6049160;23;20034;-70
2023/06/24 02:52:55;;;;;;;8.13;7.43;;;;;;;-145.89;100.00;61635.81;6015204;23;20035;-70
2023/06/24 02:55:21;;;;;;;8.70;7.90;;;;;;;-145.89;100.00;61635.81;6050385;23;20552;-70
2023/06/24 02:57:48;;;;;;;15.18;9.15;;;;;;;-145.89;100.00;61635.81;6011978;23;20141;-71
2023/06/24 03:00:15;;;;;;;8.75;8.00;;;;;;;-145.89;100.00;61635.81;6044137;23;20032;-70
2023/06/24 03:02:44;;;;;;;10.75;8.65;;;;;;;-145.89;100.00;61635.81;6009460;23;20023;-71
2023/06/24 03:05:11;;;;;;;8.80;8.00;;;;;;;-145.89;100.00;61635.81;6051745;23;20658;-70
2023/06/24 03:07:38;;;;;;;13.05;8.55;;;;;;;-145.89;100.00;61635.81;6011704;23;20078;-70
2023/06/24 03:10:05;;;;;;;8.63;7.82;;;;;;;-145.89;100.00;61635.81;6050969;23;20034;-70
2023/06/24 03:12:32;;;;;;;9.40;8.40;;;;;;;-145.89;100.00;61635.81;6019091;23;20042;-70
2023/06/24 03:14:59;;;;;;;9.00;8.15;;;;;;;-145.89;100.00;61635.81;6045580;23;20030;-70
2023/06/24 03:17:26;;;;;;;9.18;8.27;;;;;;;-145.89;100.00;61635.81;6006880;23;20077;-70
2023/06/24 03:19:52;;;;;;;20.45;9.15;;;;;;;-145.89;100.00;61635.81;6050205;23;20441;-71
2023/06/24 03:22:19;;;;;;;15.27;8.88;;;;;;;-145.89;100.00;61635.81;5991595;23;20078;-70
2023/06/24 03:24:46;;;;;;;9.02;8.13;;;;;;;-145.89;100.00;61635.81;6047419;23;20093;-70
2023/06/24 03:27:12;;;;;;;9.25;8.27;;;;;;;-145.89;100.00;61635.81;6020260;23;20261;-70
2023/06/24 03:29:39;;;;;;;9.45;8.23;;;;;;;-145.89;100.00;61635.81;6053471;23;20030;-71
2023/06/24 03:32:05;;;;;;;8.88;7.80;;;;;;;-145.89;100.00;61635.81;6013662;23;20022;-71
2023/06/24 03:34:32;;;;;;;9.60;8.57;;;;;;;-145.89;100.00;61635.81;6050619;23;20014;-71
2023/06/24 03:36:58;;;;;;;10.68;7.85;;;;;;;-145.89;100.00;61635.81;6008433;23;20031;-71
2023/06/24 03:39:25;;;;;;;9.77;8.88;;;;;;;-145.89;100.00;61635.81;6041580;23;20026;-71
2023/06/24 03:41:51;;;;;;;11.95;8.60;;;;;;;-145.89;100.00;61635.81;6012243;23;20122;-71
2023/06/24 03:44:18;;;;;;;8.43;7.63;;;;;;;-145.89;100.00;61635.81;6048157;23;20019;-71
2023/06/24 03:46:44;;;;;;;14.48;8.98;;;;;;;-145.89;100.00;61635.81;6018741;23;20051;-71
2023/06/24 03:49:10;;;;;;;10.75;8.35;;;;;;;-145.89;100.00;61635.81;6052880;23;20018;-70
2023/06/24 03:51:37;;;;;;;8.93;8.07;;;;;;;-145.89;100.00;61635.81;6009682;23;20031;-70
2023/06/24 03:54:03;;;;;;;11.88;8.80;;;;;;;-145.89;100.00;61635.81;6049065;23;20097;-71
2023/06/24 03:56:30;;;;;;;13.27;8.93;;;;;;;-145.89;100.00;61635.81;6013533;23;20029;-71
2023/06/24 03:58:56;;;;;;;9.80;8.77;;;;;;;-145.89;100.00;61635.81;6046924;23;20397;-71
2023/06/24 04:01:22;;;;;;;10.50;8.23;;;;;;;-145.89;100.00;61635.81;6016413;23;20030;-71
2023/06/24 04:03:49;;;;;;;8.63;7.85;;;;;;;-145.89;100.00;61635.81;6053002;23;20026;-71
2023/06/24 04:06:15;;;;;;;8.90;8.25;;;;;;;-145.89;100.00;61635.81;6008090;23;20589;-71
2023/06/24 04:08:43;;;;;;;8.82;8.02;;;;;;;-145.89;100.00;61635.81;6046205;23;20021;-70
2023/06/24 04:11:09;;;;;;;9.85;8.93;;;;;;;-145.89;100.00;61635.81;6013458;23;20094;-71
2023/06/24 04:13:36;;;;;;;10.68;8.45;;;;;;;-145.89;100.00;61635.81;6051114;23;20019;-71
2023/06/24 04:16:02;;;;;;;9.25;8.13;;;;;;;-145.89;100.00;61635.81;6018024;23;20019;-71
2023/06/24 04:18:29;;;;;;;9.20;8.25;;;;;;;-145.89;100.00;61635.81;6043870;23;20034;-71
2023/06/24 04:20:55;;;;;;;10.75;7.82;;;;;;;-145.89;100.00;61635.81;6012030;23;20788;-71
2023/06/24 04:23:21;;;;;;;8.68;7.78;;;;;;;-145.89;100.00;61635.81;6042342;23;20029;-71
2023/06/24 04:25:48;;;;;;;9.02;8.23;;;;;;;-145.89;100.00;61635.81;6005215;23;20038;-71
2023/06/24 04:28:14;;;;;;;9.77;8.77;;;;;;;-145.89;100.00;61635.81;6047038;23;20038;-71
2023/06/24 04:30:41;;;;;;;8.82;8.13;;;;;;;-145.89;100.00;61635.81;6009907;23;20035;-71
2023/06/24 04:33:08;;;;;;;9.15;8.25;;;;;;;-145.89;100.00;61635.81;6046895;23;20019;-71
2023/06/24 04:35:34;;;;;;;10.95;7.30;;;;;;;-145.89;100.00;61635.81;6009103;23;20030;-71
2023/06/24 04:38:01;;;;;;;10.13;8.80;;;;;;;-145.89;100.00;61635.81;6020004;23;20022;-71
2023/06/24 04:40:28;;;;;;;9.55;8.70;;;;;;;-145.89;100.00;61635.81;6019473;23;20679;-71
2023/06/24 04:42:54;;;;;;;10.73;8.60;;;;;;;-145.89;100.00;61635.81;6017828;23;20028;-71
2023/06/24 04:45:21;;;;;;;9.90;8.80;;;;;;;-145.89;100.00;61635.81;6012395;23;20025;-71
2023/06/24 04:47:49;;;;;;;9.32;8.43;;;;;;;-145.89;100.00;61635.81;6051643;23;20758;-71
2023/06/24 04:50:16;;;;;;;9.98;8.45;;;;;;;-145.89;100.00;61635.81;6010567;23;20138;-71
2023/06/24 04:52:42;;;;;;;9.57;8.68;;;;;;;-145.89;100.00;61635.81;6046544;23;20036;-71
2023/06/24 04:55:09;;;;;;;9.15;8.35;;;;;;;-145.89;100.00;61635.81;6011632;23;20023;-71
2023/06/24 04:57:35;;;;;;;11.07;8.23;;;;;;;-145.89;100.00;61635.81;6044565;23;20475;-72
2023/06/24 05:00:02;;;;;;;10.38;8.90;;;;;;;-145.89;100.00;61635.81;6012411;23;20094;-71
2023/06/24 05:02:29;;;;;;;10.10;7.85;;;;;;;-145.89;100.00;61635.81;6051550;23;20022;-71
2023/06/24 05:04:55;;;;;;;9.30;8.18;;;;;;;-145.89;100.00;61635.81;6009351;23;20024;-71
2023/06/24 05:07:22;;;;;;;8.77;8.00;;;;;;;-145.89;100.00;61635.81;6046906;23;20054;-71
2023/06/24 05:09:50;;;;;;;10.25;8.85;;;;;;;-145.89;100.00;61635.81;6008648;23;20022;-72
2023/06/24 05:12:19;;;;;;;8.70;8.05;;;;;;;-145.89;100.00;61635.81;6018083;23;20023;-72
2023/06/24 05:14:52;;;;;;;8.50;7.70;;;;;;;-145.89;100.00;61635.81;6010063;23;20193;-72
2023/06/24 05:17:20;;;;;;;8.88;8.18;;;;;;;-145.89;100.00;61635.81;6020542;23;20426;-70
2023/06/24 05:19:46;;;;;;;8.38;7.57;;;;;;;-145.89;100.00;61635.81;6013481;23;21010;-71
2023/06/24 05:22:12;;;;;;;9.07;8.27;;;;;;;-145.89;100.00;61635.81;6046594;23;20036;-70
2023/06/24 05:24:41;;;;;;;8.65;7.90;;;;;;;-145.89;100.00;61635.81;6017597;23;20823;-70
2023/06/24 05:27:07;;;;;;;9.88;8.07;;;;;;;-145.89;100.00;61635.81;6046196;23;20018;-70
2023/06/24 05:29:34;;;;;;;8.88;8.05;;;;;;;-145.89;100.00;61635.81;6015487;23;20033;-71
2023/06/24 05:32:03;;;;;;;8.25;7.60;;;;;;;-145.89;100.00;61635.81;6047064;23;20031;-72
2023/06/24 05:34:30;;;;;;;9.07;8.25;;;;;;;-145.89;100.00;61635.81;6021360;23;20015;-71
2023/06/24 05:36:57;;;;;;;8.27;7.57;;;;;;;-145.89;100.00;61635.81;6051069;23;20586;-70
2023/06/24 05:39:24;;;;;;;8.68;7.78;;;;;;;-145.89;100.00;61635.81;6014053;23;20070;-71
2023/06/24 05:41:50;;;;;;;8.15;7.57;;;;;;;-145.89;100.00;61635.81;6045248;23;20069;-71
2023/06/24 05:44:19;;;;;;;8.25;7.65;;;;;;;-145.89;100.00;61635.81;6014293;23;20037;-71
2023/06/24 05:46:45;;;;;;;7.80;7.20;;;;;;;-145.89;100.00;61635.81;6047439;23;20022;-70
2023/06/24 05:49:12;;;;;;;8.80;7.93;;;;;;;-145.89;100.00;61635.81;6011329;23;20034;-70
2023/06/24 05:51:38;;;;;;;8.63;7.93;;;;;;;-145.89;100.00;61635.81;6044542;23;20030;-71
2023/06/24 05:54:05;;;;;;;9.18;8.38;;;;;;;-145.89;100.00;61635.81;5998802;23;20026;-70
2023/06/24 05:56:32;;;;;;;9.10;8.30;;;;;;;-145.89;100.00;61635.81;6047554;23;20094;-71
2023/06/24 05:58:58;;;;;;;10.23;8.48;;;;;;;-145.89;100.00;61635.81;6028029;23;20034;-72
2023/06/24 06:01:25;;;;;;;9.63;8.73;;;;;;;-145.89;100.00;61635.81;6051132;23;20071;-70
2023/06/24 06:03:51;;;;;;;8.50;7.63;;;;;;;-145.89;100.00;61635.81;6011418;23;20030;-70
2023/06/24 06:06:18;;;;;;;9.20;8.23;;;;;;;-145.89;100.00;61635.81;6046173;23;20010;-70
2023/06/24 06:08:44;;;;;;;8.98;8.07;;;;;;;-145.89;100.00;61635.81;6001138;23;20048;-72
2023/06/24 06:11:11;;;;;;;9.07;8.20;;;;;;;-145.89;100.00;61635.81;6047194;23;20031;-69
2023/06/24 06:13:37;;;;;;;8.90;8.07;;;;;;;-145.89;100.00;61635.81;6017621;23;20458;-72
2023/06/24 06:16:04;;;;;;;8.18;7.55;;;;;;;-145.89;100.00;61635.81;6050062;23;20026;-72
2023/06/24 06:18:30;;;;;;;9.10;8.40;;;;;;;-145.89;100.00;61635.81;6016572;23;20030;-72
2023/06/24 06:20:57;;;;;;;8.13;7.47;;;;;;;-145.89;100.00;61635.81;6052360;23;20022;-70
2023/06/24 06:23:23;;;;;;;8.52;7.43;;;;;;;-145.89;100.00;61635.81;6023133;23;20027;-72
2023/06/24 06:25:50;;;;;;;9.55;8.63;;;;;;;-145.89;100.00;61635.81;6050901;23;20630;-72
2023/06/24 06:28:16;;;;;;;8.93;8.20;;;;;;;-145.89;100.00;61635.81;6012290;23;20078;-72
2023/06/24 06:30:43;;;;;;;9.07;8.30;;;;;;;-145.89;100.00;61635.81;6053435;23;20046;-72
2023/06/24 06:33:09;;;;;;;8.77;8.05;;;;;;;-145.89;100.00;61635.81;6015174;23;20035;-72
2023/06/24 06:35:36;;;;;;;10.38;7.90;;;;;;;-145.89;100.00;61635.81;6048336;23;20034;-72
2023/06/24 06:38:02;;;;;;;8.70;7.90;;;;;;;-145.89;100.00;61635.81;6024887;23;20980;-69
2023/06/24 06:40:29;;;;;;;9.60;8.60;;;;;;;-145.89;100.00;61635.81;6051012;23;20049;-71
2023/06/24 06:42:55;;;;;;;9.30;8.43;;;;;;;-145.89;100.00;61635.81;6017419;23;20041;-70
2023/06/24 06:45:22;;;;;;;8.27;7.68;;;;;;;-145.89;100.00;61635.81;6043899;23;20419;-70
2023/06/24 06:47:50;;;;;;;8.48;7.40;;;;;;;-145.89;100.00;61635.81;6010877;23;20054;-71
2023/06/24 06:50:16;;;;;;;7.88;7.22;;;;;;;-145.89;100.00;61635.81;6049481;23;20038;-71
2023/06/24 06:52:43;;;;;;;7.57;7.05;;;;;;;-145.89;100.00;61635.81;6010267;23;20470;-71
2023/06/24 06:55:09;;;;;;;7.55;6.97;;;;;;;-145.89;100.00;61635.81;6053118;23;20030;-70
2023/06/24 06:57:36;;;;;;;7.93;7.32;;;;;;;-145.89;100.00;61635.81;6010594;23;20102;-71
2023/06/24 07:00:03;;;;;;;7.93;7.20;;;;;;;-145.89;100.00;61635.81;6050575;23;20037;-71
2023/06/24 07:02:30;;;;;;;7.50;6.90;;;;;;;-145.89;100.00;61635.81;6023050;23;20633;-71
2023/06/24 07:04:56;;;;;;;8.02;7.18;;;;;;;-145.89;100.00;61635.81;6038162;23;20735;-72
2023/06/24 07:07:23;;;;;;;7.50;7.00;;;;;;;-145.89;100.00;61635.81;6021368;23;20015;-70
2023/06/24 07:09:49;;;;;;;8.05;6.88;;;;;;;-145.89;100.00;61635.81;6018496;23;20084;-70
2023/06/24 07:12:16;;;;;;;7.65;7.05;;;;;;;-145.89;100.00;61635.81;6016583;23;20029;-70
2023/06/24 07:14:42;;;;;;;7.68;7.18;;;;;;;-145.89;100.00;61635.81;6047132;23;20025;-70
2023/06/24 07:17:08;;;;;;;7.97;7.28;;;;;;;-145.89;100.00;61635.81;6008187;23;20094;-70
2023/06/24 07:19:35;;;;;;;7.35;6.85;;;;;;;-145.89;100.00;61635.81;6042354;23;20118;-71
2023/06/24 07:22:04;;;;;;;7.40;6.85;;;;;;;-145.89;100.00;61635.81;5985187;23;20020;-71
2023/06/24 07:24:30;;;;;;;7.80;7.10;;;;;;;-145.89;100.00;61635.81;6052201;23;20038;-70
2023/06/24 07:26:57;;;;;;;8.27;7.50;;;;;;;-145.89;100.00;61635.81;6018446;23;20018;-71
2023/06/24 07:29:23;;;;;;;7.70;7.20;;;;;;;-145.89;100.00;61635.81;6047377;23;20018;-70
2023/06/24 07:31:49;;;;;;;8.07;7.50;;;;;;;-145.89;100.00;61635.81;6012373;23;20007;-70
2023/06/24 07:34:16;;;;;;;7.47;6.95;;;;;;;-145.89;100.00;61635.81;6036594;23;20021;-71
2023/06/24 07:36:42;;;;;;;7.40;6.90;;;;;;;-145.89;100.00;61635.81;6004568;23;20035;-70
2023/06/24 07:39:09;;;;;;;8.40;6.88;;;;;;;-145.89;100.00;61635.81;6044143;23;20085;-70
2023/06/24 07:41:35;;;;;;;8.13;7.43;;;;;;;-145.89;100.00;61635.81;6006617;23;20024;-70
2023/06/24 07:44:02;;;;;;;7.53;6.90;;;;;;;-145.89;100.00;61635.81;6042483;23;20022;-70
2023/06/24 07:46:29;;;;;;;7.53;7.00;;;;;;;-145.89;100.00;61635.81;6012610;23;20030;-70
2023/06/24 07:48:56;;;;;;;7.35;6.82;;;;;;;-145.89;100.00;61635.81;6048722;23;20032;-70
2023/06/24 07:51:22;;;;;;;7.20;6.70;;;;;;;-145.89;100.00;61635.81;6023025;23;20031;-70
2023/06/24 07:53:49;;;;;;;7.38;6.75;;;;;;;-145.89;100.00;61635.81;6043714;23;20034;-70
2023/06/24 07:56:15;;;;;;;7.45;6.85;;;;;;;-145.89;100.00;61635.81;6008199;23;20096;-70
2023/06/24 07:58:42;;;;;;;7.22;6.68;;;;;;;-145.89;100.00;61635.81;6046345;23;20050;-70
2023/06/24 08:01:08;;;;;;;7.40;6.78;;;;;;;-145.89;100.00;61635.81;6007676;23;20034;-70
2023/06/24 08:03:36;;;;;;;8.13;7.22;;;;;;;-145.89;100.00;61635.81;6016831;23;20026;-71
2023/06/24 08:06:03;;;;;;;7.25;6.70;;;;;;;-145.89;100.00;61635.81;6042523;23;20329;-71
2023/06/24 08:08:30;;;;;;;7.60;7.00;;;;;;;-145.89;100.00;61635.81;6009821;23;20019;-71
2023/06/24 08:10:56;;;;;;;7.80;7.10;;;;;;;-145.89;100.00;61635.81;6044450;23;20386;-72
2023/06/24 08:13:23;;;;;;;7.90;7.30;;;;;;;-145.89;100.00;61635.81;6015770;23;20047;-71
2023/06/24 08:15:49;;;;;;;8.60;7.57;;;;;;;-145.89;100.00;61635.81;6041700;23;20029;-71
2023/06/24 08:18:16;;;;;;;7.75;7.25;;;;;;;-145.89;100.00;61635.81;5988405;23;20106;-70
2023/06/24 08:20:42;;;;;;;9.98;6.60;;;;;;;-145.89;100.00;61635.81;6053541;23;20022;-71
2023/06/24 08:23:09;;;;;;;7.70;7.00;;;;;;;-145.89;100.00;61635.81;6008873;23;20092;-71
2023/06/24 08:25:36;;;;;;;7.57;6.82;;;;;;;-145.89;100.00;61635.81;6048705;23;20022;-71
2023/06/24 08:28:03;;;;;;;8.05;7.25;;;;;;;-145.89;100.00;61635.81;5983192;23;20030;-70
2023/06/24 08:30:29;;;;;;;7.63;7.03;;;;;;;-145.89;100.00;61635.81;6052339;23;20093;-71
2023/06/24 08:32:55;;;;;;;8.40;7.18;;;;;;;-145.89;100.00;61635.81;6014466;23;20083;-71
2023/06/24 08:35:22;;;;;;;8.68;7.10;;;;;;;-145.89;100.00;61635.81;6044611;23;20026;-71
2023/06/24 08:37:48;;;;;;;7.15;6.65;;;;;;;-145.89;100.00;61635.81;6013045;23;20351;-71
2023/06/24 08:40:15;;;;;;;7.57;7.07;;;;;;;-145.89;100.00;61635.81;6038539;23;20019;-71
2023/06/24 08:42:43;;;;;;;7.82;7.20;;;;;;;-145.89;100.00;61635.81;6008546;23;20031;-71
2023/06/24 08:45:10;;;;;;;8.02;7.22;;;;;;;-145.89;100.00;61635.81;6048597;23;20027;-70
2023/06/24 08:47:37;;;;;;;7.40;6.80;;;;;;;-145.89;100.00;61635.81;5983922;23;20034;-70
2023/06/24 08:50:07;;;;;;;10.55;7.03;;;;;;;-145.89;100.00;61635.81;6023842;23;20030;-72
2023/06/24 08:52:41;;;;;;;9.38;7.63;;;;;;;-145.89;100.00;61635.81;6009769;23;20011;-71
2023/06/24 08:55:13;;;;;;;7.97;7.20;;;;;;;-145.89;100.00;61635.81;6049374;23;20024;-72
2023/06/24 08:57:39;;;;;;;8.00;7.25;;;;;;;-145.89;100.00;61635.81;6013217;23;20470;-71
2023/06/24 09:00:09;;;;;;;7.80;7.10;;;;;;;-145.89;100.00;61635.81;6048349;23;20031;-71
2023/06/24 09:02:38;;;;;;;8.68;7.68;;;;;;;-145.89;100.00;61635.81;6016934;23;20623;-72
2023/06/24 09:05:05;;;;;;;7.85;7.15;;;;;;;-145.89;100.00;61635.81;6046379;23;20092;-72
2023/06/24 09:07:32;;;;;;;7.95;7.20;;;;;;;-145.89;100.00;61635.81;6014457;23;20080;-70
2023/06/24 09:10:00;;;;;;;11.48;7.90;;;;;;;-145.89;100.00;61635.81;6042313;23;20022;-72
2023/06/24 09:12:27;;;;;;;8.43;7.70;;;;;;;-145.89;100.00;61635.81;6006853;23;20720;-71
2023/06/24 09:14:53;;;;;;;7.93;7.22;;;;;;;-145.89;100.00;61635.81;6006598;23;20051;-72
2023/06/24 09:17:22;;;;;;;8.98;8.18;;;;;;;-145.89;100.00;61635.81;6010612;23;20018;-72
2023/06/24 09:19:49;;;;;;;8.48;7.68;;;;;;;-145.89;100.00;61635.81;6046635;23;20014;-71
2023/06/24 09:22:19;;;;;;;9.32;7.72;;;;;;;-145.89;100.00;61635.81;6006659;23;20174;-71
2023/06/24 09:24:48;;;;;;;8.40;7.18;;;;;;;-145.89;100.00;61635.81;6048274;23;20461;-70
2023/06/24 09:27:15;;;;;;;7.95;7.25;;;;;;;-145.89;100.00;61635.81;6011075;23;20015;-71
2023/06/24 09:29:43;;;;;;;7.78;7.18;;;;;;;-145.89;100.00;61635.81;6053352;23;20050;-71
2023/06/24 09:32:09;;;;;;;8.68;7.78;;;;;;;-145.89;100.00;61635.81;6004062;23;20015;-71
2023/06/24 09:34:36;;;;;;;9.90;8.07;;;;;;;-145.89;100.00;61635.81;6046913;23;20573;-71
2023/06/24 09:37:03;;;;;;;15.38;8.15;;;;;;;-145.89;100.00;61635.81;5992454;23;20018;-70
2023/06/24 09:39:36;;;;;;;8.73;7.93;;;;;;;-145.89;100.00;61635.81;6042631;23;20026;-72
2023/06/24 09:42:04;;;;;;;9.88;8.02;;;;;;;-145.89;100.00;61635.81;6012203;23;20018;-70
2023/06/24 09:44:32;;;;;;;8.95;7.30;;;;;;;-145.89;100.00;61635.81;6052262;23;20032;-70
2023/06/24 09:46:59;;;;;;;8.93;7.50;;;;;;;-145.89;100.00;61635.81;5876035;23;20078;-72
2023/06/24 09:49:25;;;;;;;8.30;7.60;;;;;;;-145.89;100.00;61635.81;6045527;23;20035;-71
2023/06/24 09:51:57;;;;;;;7.68;7.05;;;;;;;-145.89;100.00;61635.81;6002595;23;20035;-72
2023/06/24 09:54:28;;;;;;;8.60;7.22;;;;;;;-145.89;100.00;61635.81;6042444;23;20045;-70
2023/06/24 09:57:01;;;;;;;8.18;7.38;;;;;;;-145.89;100.00;61635.81;6008741;23;20025;-70
2023/06/24 09:59:30;;;;;;;8.05;7.38;;;;;;;-145.89;100.00;61635.81;6046696;23;20034;-70
2023/06/24 10:01:57;;;;;;;7.80;7.10;;;;;;;-145.89;100.00;61635.81;6017396;23;20028;-70
2023/06/24 10:04:26;;;;;;;8.88;7.97;;;;;;;-145.89;100.00;61635.81;6054104;23;20026;-70
2023/06/24 10:06:53;;;;;;;8.27;7.55;;;;;;;-145.89;100.00;61635.81;6005519;23;20460;-70
2023/06/24 10:09:19;;;;;;;7.78;7.15;;;;;;;-145.89;100.00;61635.81;6047559;23;20023;-70
2023/06/24 10:11:47;;;;;;;7.90;7.28;;;;;;;-145.89;100.00;61635.81;6006769;23;20026;-70
2023/06/24 10:14:14;;;;;;;8.13;7.43;;;;;;;-145.89;100.00;61635.81;6019192;23;20085;-70
2023/06/24 10:16:42;;;;;;;7.90;7.30;;;;;;;-145.89;100.00;61635.81;6009992;23;20073;-70
2023/06/24 10:19:09;;;;;;;7.35;6.85;;;;;;;-145.89;100.00;61635.81;6051284;23;20043;-70
2023/06/24 10:21:53;;;;;;;7.47;6.97;;;;;;;-145.89;100.00;61635.81;6024675;23;20035;-71
2023/06/24 10:24:34;;;;;;;7.55;6.95;;;;;;;-145.89;100.00;61635.81;6051484;23;20019;-71
2023/06/24 10:27:05;;;;;;;7.05;6.55;;;;;;;-145.89;100.00;61635.81;5982535;23;20600;-71
2023/06/24 10:29:36;;;;;;;8.82;8.10;;;;;;;-145.89;100.00;61635.81;6049598;23;20037;-70
2023/06/24 10:32:11;;;;;;;7.05;6.57;;;;;;;-145.89;100.00;61635.81;6011277;23;20019;-70
2023/06/24 10:34:37;;;;;;;7.90;6.63;;;;;;;-145.89;100.00;61635.81;6024450;23;20026;-70
2023/06/24 10:37:07;;;;;;;7.00;6.50;;;;;;;-145.89;100.00;61635.81;5995603;23;20023;-71
2023/06/24 10:39:51;;;;;;;7.10;6.70;;;;;;;-145.89;100.00;61635.81;6042814;23;20094;-70
2023/06/24 10:42:29;;;;;;;7.00;6.50;;;;;;;-145.89;100.00;61635.81;6012601;23;20015;-70
2023/06/24 10:45:15;;;;;;;6.90;6.40;;;;;;;-145.89;100.00;61635.81;6057532;23;20034;-70
2023/06/24 10:47:49;;;;;;;6.53;6.10;;;;;;;-145.89;100.00;61635.81;6014405;23;20019;-71
2023/06/24 10:50:19;;;;;;;7.13;6.53;;;;;;;-145.89;100.00;61635.81;6048800;23;20137;-71
2023/06/24 10:52:47;;;;;;;7.15;6.65;;;;;;;-145.89;100.00;61635.81;6013458;23;20011;-70
2023/06/24 10:55:15;;;;;;;6.93;6.43;;;;;;;-145.89;100.00;61635.81;6053101;23;20030;-70
2023/06/24 10:57:42;;;;;;;6.80;6.40;;;;;;;-145.89;100.00;61635.81;5988381;23;20074;-70
2023/06/24 11:00:09;;;;;;;6.93;6.50;;;;;;;-145.89;100.00;61635.81;6025325;23;20434;-70
2023/06/24 11:02:36;;;;;;;6.82;6.32;;;;;;;-145.89;100.00;61635.81;6010980;23;20950;-69
2023/06/24 11:05:04;;;;;;;6.72;6.25;;;;;;;-145.89;100.00;61635.81;6049911;23;20096;-70
2023/06/24 11:07:34;;;;;;;6.68;6.28;;;;;;;-145.89;100.00;61635.81;5988383;23;20101;-70
2023/06/24 11:10:04;;;;;;;6.95;6.30;;;;;;;-145.89;100.00;61635.81;6017957;23;20102;-71
2023/06/24 11:12:35;;;;;;;6.93;6.53;;;;;;;-145.89;100.00;61635.81;5983318;23;20038;-69
2023/06/24 11:15:09;;;;;;;7.10;6.60;;;;;;;-145.89;100.00;61635.81;6019062;23;20010;-72